createdAt,value
2018-11-04T00:00:06.361Z,9.90
2018-11-04T00:00:45.781Z,9.80
2018-11-04T00:01:20.527Z,9.80
2018-11-04T00:01:55.262Z,9.80
2018-11-04T00:02:29.922Z,9.90
2018-11-04T00:03:04.640Z,9.90
2018-11-04T00:03:39.403Z,9.80
2018-11-04T00:04:14.145Z,9.90
2018-11-04T00:04:48.923Z,9.90
2018-11-04T00:05:23.684Z,9.80
2018-11-04T00:05:58.423Z,9.90
2018-11-04T00:06:33.501Z,9.90
2018-11-04T00:07:08.661Z,9.90
2018-11-04T00:07:43.421Z,9.90
2018-11-04T00:08:18.102Z,9.90
2018-11-04T00:08:52.980Z,9.90
2018-11-04T00:09:27.680Z,9.80
2018-11-04T00:10:02.521Z,9.90
2018-11-04T00:10:37.482Z,9.90
2018-11-04T00:11:12.241Z,9.90
2018-11-04T00:11:47.281Z,9.80
2018-11-04T00:12:22.183Z,9.80
2018-11-04T00:12:56.965Z,9.90
2018-11-04T00:13:31.802Z,9.90
2018-11-04T00:14:06.724Z,9.80
2018-11-04T00:14:41.461Z,9.80
2018-11-04T00:15:16.286Z,9.80
2018-11-04T00:15:51.105Z,9.90
2018-11-04T00:16:25.720Z,9.90
2018-11-04T00:17:00.663Z,9.80
2018-11-04T00:17:35.782Z,9.90
2018-11-04T00:18:10.628Z,9.90
2018-11-04T00:18:45.464Z,9.90
2018-11-04T00:19:20.369Z,9.80
2018-11-04T00:19:55.121Z,9.90
2018-11-04T00:20:29.921Z,9.90
2018-11-04T00:21:04.763Z,9.90
2018-11-04T00:21:39.461Z,9.90
2018-11-04T00:22:13.945Z,9.90
2018-11-04T00:22:49.042Z,9.90
2018-11-04T00:23:23.741Z,9.90
2018-11-04T00:23:58.836Z,9.80
2018-11-04T00:24:33.921Z,9.90
2018-11-04T00:25:10.121Z,9.90
2018-11-04T00:25:45.360Z,9.90
2018-11-04T00:26:20.388Z,9.90
2018-11-04T00:26:56.144Z,9.90
2018-11-04T00:27:30.900Z,9.90
2018-11-04T00:28:05.682Z,9.90
2018-11-04T00:28:40.540Z,9.90
2018-11-04T00:29:15.201Z,9.90
2018-11-04T00:29:49.907Z,9.90
2018-11-04T00:30:24.740Z,9.90
2018-11-04T00:30:59.742Z,9.90
2018-11-04T00:31:34.560Z,9.90
2018-11-04T00:32:09.120Z,9.90
2018-11-04T00:32:44.049Z,9.90
2018-11-04T00:33:19.166Z,9.90
2018-11-04T00:33:53.960Z,9.90
2018-11-04T00:34:28.482Z,9.90
2018-11-04T00:35:03.280Z,9.90
2018-11-04T00:35:38.180Z,9.90
2018-11-04T00:36:12.880Z,9.90
2018-11-04T00:36:47.501Z,9.90
2018-11-04T00:37:22.101Z,9.90
2018-11-04T00:37:56.960Z,9.90
2018-11-04T00:38:31.588Z,9.90
2018-11-04T00:39:08.001Z,9.90
2018-11-04T00:39:42.848Z,9.90
2018-11-04T00:40:17.800Z,9.90
2018-11-04T00:40:52.624Z,9.90
2018-11-04T00:41:27.522Z,9.90
2018-11-04T00:42:02.341Z,9.90
2018-11-04T00:42:37.320Z,9.90
2018-11-04T00:43:12.340Z,9.90
2018-11-04T00:43:47.020Z,9.90
2018-11-04T00:44:22.220Z,9.90
2018-11-04T00:44:56.820Z,9.90
2018-11-04T00:45:31.785Z,9.90
2018-11-04T00:46:06.484Z,9.90
2018-11-04T00:46:41.280Z,9.90
2018-11-04T00:47:16.280Z,9.90
2018-11-04T00:47:51.039Z,9.90
2018-11-04T00:48:26.033Z,9.90
2018-11-04T00:49:01.019Z,9.90
2018-11-04T00:49:35.582Z,9.90
2018-11-04T00:50:13.640Z,9.90
2018-11-04T00:50:48.271Z,9.90
2018-11-04T00:51:23.162Z,9.90
2018-11-04T00:51:57.720Z,9.90
2018-11-04T00:52:32.341Z,9.90
2018-11-04T00:53:07.659Z,9.90
2018-11-04T00:53:42.601Z,9.90
2018-11-04T00:54:17.359Z,9.90
2018-11-04T00:54:51.982Z,9.90
2018-11-04T00:55:26.703Z,9.90
2018-11-04T00:56:01.250Z,9.90
2018-11-04T00:56:35.900Z,9.90
2018-11-04T00:57:10.571Z,9.90
2018-11-04T00:57:45.142Z,9.90
2018-11-04T00:58:20.021Z,9.90
2018-11-04T00:58:55.181Z,9.90
2018-11-04T00:59:31.600Z,9.90
2018-11-04T01:00:09.061Z,9.90
2018-11-04T01:00:44.249Z,9.90
2018-11-04T01:01:19.291Z,9.90
2018-11-04T01:01:54.681Z,9.90
2018-11-04T01:02:29.800Z,9.90
2018-11-04T01:03:04.880Z,9.90
2018-11-04T01:03:39.680Z,9.90
2018-11-04T01:04:14.940Z,9.90
2018-11-04T01:04:49.964Z,9.90
2018-11-04T01:05:25.008Z,9.90
2018-11-04T01:06:00.061Z,9.90
2018-11-04T01:06:35.281Z,9.90
2018-11-04T01:07:10.508Z,9.90
2018-11-04T01:07:45.320Z,9.90
2018-11-04T01:08:19.819Z,9.90
2018-11-04T01:08:55.047Z,9.90
2018-11-04T01:09:30.001Z,9.90
2018-11-04T01:10:05.104Z,9.90
2018-11-04T01:10:39.959Z,9.90
2018-11-04T01:11:14.800Z,9.90
2018-11-04T01:11:49.668Z,9.90
2018-11-04T01:12:24.260Z,9.90
2018-11-04T01:12:59.228Z,9.90
2018-11-04T01:13:34.020Z,9.90
2018-11-04T01:14:08.880Z,9.90
2018-11-04T01:14:43.640Z,9.90
2018-11-04T01:15:19.461Z,9.90
2018-11-04T01:15:54.308Z,9.90
2018-11-04T01:16:29.281Z,9.90
2018-11-04T01:17:04.419Z,9.90
2018-11-04T01:17:39.741Z,9.90
2018-11-04T01:18:15.307Z,9.90
2018-11-04T01:18:50.300Z,9.90
2018-11-04T01:19:25.419Z,9.90
2018-11-04T01:20:00.261Z,9.90
2018-11-04T01:20:35.241Z,9.90
2018-11-04T01:21:10.437Z,9.90
2018-11-04T01:21:45.907Z,9.90
2018-11-04T01:22:20.607Z,9.90
2018-11-04T01:22:55.640Z,9.90
2018-11-04T01:23:31.120Z,9.90
2018-11-04T01:24:06.479Z,9.90
2018-11-04T01:24:42.340Z,9.90
2018-11-04T01:25:17.623Z,9.90
2018-11-04T01:25:52.423Z,9.90
2018-11-04T01:26:27.230Z,9.90
2018-11-04T01:27:03.759Z,9.90
2018-11-04T01:27:38.380Z,9.90
2018-11-04T01:28:13.701Z,9.90
2018-11-04T01:28:48.919Z,9.90
2018-11-04T01:29:24.061Z,9.90
2018-11-04T01:29:58.960Z,9.90
2018-11-04T01:30:33.783Z,9.90
2018-11-04T01:31:09.082Z,9.90
2018-11-04T01:31:43.821Z,9.90
2018-11-04T01:32:18.939Z,9.90
2018-11-04T01:32:53.900Z,9.90
2018-11-04T01:33:28.739Z,9.90
2018-11-04T01:34:03.820Z,9.90
2018-11-04T01:34:38.340Z,9.90
2018-11-04T01:35:13.081Z,9.90
2018-11-04T01:35:47.707Z,9.90
2018-11-04T01:36:22.484Z,9.90
2018-11-04T01:36:57.320Z,9.90
2018-11-04T01:37:32.083Z,9.90
2018-11-04T01:38:06.959Z,9.90
2018-11-04T01:38:41.659Z,9.90
2018-11-04T01:39:16.499Z,9.90
2018-11-04T01:39:51.560Z,9.90
2018-11-04T01:40:26.481Z,9.90
2018-11-04T01:41:01.419Z,9.90
2018-11-04T01:41:36.740Z,9.90
2018-11-04T01:42:11.541Z,9.90
2018-11-04T01:42:46.860Z,9.90
2018-11-04T01:43:21.803Z,9.90
2018-11-04T01:43:56.499Z,9.90
2018-11-04T01:44:31.980Z,9.90
2018-11-04T01:45:08.602Z,9.90
2018-11-04T01:45:43.739Z,9.90
2018-11-04T01:46:18.782Z,9.90
2018-11-04T01:46:53.479Z,9.90
2018-11-04T01:47:28.140Z,9.90
2018-11-04T01:48:03.483Z,9.90
2018-11-04T01:48:38.202Z,9.90
2018-11-04T01:49:13.460Z,9.90
2018-11-04T01:49:48.599Z,9.90
2018-11-04T01:50:23.480Z,9.90
2018-11-04T01:50:58.240Z,9.90
2018-11-04T01:51:33.003Z,9.90
2018-11-04T01:52:07.987Z,9.90
2018-11-04T01:52:42.800Z,9.90
2018-11-04T01:53:17.560Z,9.90
2018-11-04T01:53:52.161Z,9.90
2018-11-04T01:54:27.001Z,9.90
2018-11-04T01:55:02.021Z,9.90
2018-11-04T01:55:36.742Z,9.90
2018-11-04T01:56:11.620Z,9.90
2018-11-04T01:56:46.439Z,9.90
2018-11-04T01:57:21.242Z,9.90
2018-11-04T01:57:56.141Z,9.90
2018-11-04T01:58:30.979Z,9.90
2018-11-04T01:59:05.825Z,9.90
2018-11-04T01:59:40.600Z,9.90
2018-11-04T02:00:16.581Z,9.90
2018-11-04T02:00:51.595Z,9.90
2018-11-04T02:01:26.401Z,9.90
2018-11-04T02:02:01.128Z,9.90
2018-11-04T02:02:35.879Z,9.90
2018-11-04T02:03:10.900Z,9.90
2018-11-04T02:03:45.779Z,9.90
2018-11-04T02:04:20.460Z,9.90
2018-11-04T02:04:55.220Z,9.90
2018-11-04T02:05:29.964Z,9.90
2018-11-04T02:06:04.908Z,9.90
2018-11-04T02:06:39.600Z,9.90
2018-11-04T02:08:17.560Z,9.90
2018-11-04T02:08:52.179Z,9.90
2018-11-04T02:09:26.879Z,9.90
2018-11-04T02:10:01.763Z,9.90
2018-11-04T02:10:36.460Z,9.90
2018-11-04T02:11:11.260Z,9.90
2018-11-04T02:11:46.280Z,9.90
2018-11-04T02:12:21.042Z,9.90
2018-11-04T02:12:55.840Z,10.00
2018-11-04T02:13:30.580Z,9.90
2018-11-04T02:14:05.160Z,9.90
2018-11-04T02:14:39.962Z,9.90
2018-11-04T02:15:14.943Z,9.90
2018-11-04T02:15:49.559Z,9.90
2018-11-04T02:16:24.341Z,9.90
2018-11-04T02:16:59.019Z,9.90
2018-11-04T02:17:33.900Z,10.00
2018-11-04T02:18:08.640Z,9.90
2018-11-04T02:18:43.460Z,9.90
2018-11-04T02:19:18.320Z,9.90
2018-11-04T02:19:53.042Z,10.00
2018-11-04T02:20:27.900Z,9.90
2018-11-04T02:21:02.680Z,10.00
2018-11-04T02:21:37.439Z,10.00
2018-11-04T02:22:12.161Z,10.00
2018-11-04T02:22:46.909Z,10.00
2018-11-04T02:23:21.488Z,10.00
2018-11-04T02:23:56.140Z,10.00
2018-11-04T02:24:30.860Z,9.90
2018-11-04T02:25:06.160Z,10.00
2018-11-04T02:25:40.940Z,10.00
2018-11-04T02:26:15.882Z,10.00
2018-11-04T02:26:50.729Z,9.90
2018-11-04T02:27:25.759Z,10.00
2018-11-04T02:28:06.940Z,10.00
2018-11-04T02:28:41.750Z,10.00
2018-11-04T02:29:16.580Z,10.00
2018-11-04T02:29:51.340Z,10.00
2018-11-04T02:30:26.021Z,10.00
2018-11-04T02:31:00.741Z,10.00
2018-11-04T02:31:35.540Z,10.00
2018-11-04T02:32:10.262Z,10.00
2018-11-04T02:32:45.760Z,10.00
2018-11-04T02:33:20.708Z,10.00
2018-11-04T02:33:55.560Z,10.00
2018-11-04T02:34:30.249Z,10.00
2018-11-04T02:35:05.261Z,10.00
2018-11-04T02:35:39.839Z,10.00
2018-11-04T02:36:14.761Z,10.00
2018-11-04T02:36:49.660Z,10.00
2018-11-04T02:37:24.421Z,10.00
2018-11-04T02:37:59.444Z,10.00
2018-11-04T02:38:34.261Z,10.10
2018-11-04T02:39:09.409Z,10.00
2018-11-04T02:39:44.061Z,10.00
2018-11-04T02:40:18.860Z,10.00
2018-11-04T02:40:53.408Z,10.00
2018-11-04T02:41:28.420Z,10.00
2018-11-04T02:42:03.121Z,10.00
2018-11-04T02:42:37.841Z,10.00
2018-11-04T02:43:12.768Z,10.10
2018-11-04T02:43:47.601Z,10.10
2018-11-04T02:44:22.282Z,10.00
2018-11-04T02:44:57.221Z,10.10
2018-11-04T02:45:31.980Z,10.10
2018-11-04T02:46:07.401Z,10.10
2018-11-04T02:46:42.216Z,10.10
2018-11-04T02:47:20.088Z,10.00
2018-11-04T02:47:54.780Z,10.10
2018-11-04T02:48:29.544Z,10.10
2018-11-04T02:49:04.340Z,10.10
2018-11-04T02:49:39.100Z,10.10
2018-11-04T02:50:13.840Z,10.10
2018-11-04T02:50:48.708Z,10.10
2018-11-04T02:51:23.402Z,10.10
2018-11-04T02:51:58.182Z,10.10
2018-11-04T02:52:33.148Z,10.10
2018-11-04T02:53:07.901Z,10.10
2018-11-04T02:53:43.261Z,10.10
2018-11-04T02:54:18.006Z,10.10
2018-11-04T02:54:53.182Z,10.10
2018-11-04T02:55:28.076Z,10.10
2018-11-04T02:56:02.920Z,10.10
2018-11-04T02:56:37.940Z,10.10
2018-11-04T02:57:12.688Z,10.10
2018-11-04T02:57:47.681Z,10.10
2018-11-04T02:58:22.840Z,10.10
2018-11-04T02:58:58.420Z,10.10
2018-11-04T02:59:33.380Z,10.10
2018-11-04T03:00:10.560Z,10.10
2018-11-04T03:00:45.679Z,10.10
2018-11-04T03:01:21.020Z,10.10
2018-11-04T03:01:56.340Z,10.10
2018-11-04T03:02:31.199Z,10.10
2018-11-04T03:03:06.740Z,10.10
2018-11-04T03:03:41.881Z,10.10
2018-11-04T03:04:17.040Z,10.10
2018-11-04T03:04:52.021Z,10.10
2018-11-04T03:05:27.428Z,10.10
2018-11-04T03:06:02.442Z,10.10
2018-11-04T03:06:37.780Z,10.10
2018-11-04T03:07:13.108Z,10.10
2018-11-04T03:07:48.121Z,10.10
2018-11-04T03:08:23.209Z,10.10
2018-11-04T03:08:58.520Z,10.10
2018-11-04T03:09:33.922Z,10.10
2018-11-04T03:10:09.961Z,10.10
2018-11-04T03:10:45.201Z,10.10
2018-11-04T03:11:20.480Z,10.10
2018-11-04T03:11:55.803Z,10.10
2018-11-04T03:12:32.759Z,10.10
2018-11-04T03:13:07.660Z,10.10
2018-11-04T03:13:42.820Z,10.10
2018-11-04T03:14:17.588Z,10.10
2018-11-04T03:14:53.000Z,10.10
2018-11-04T03:15:27.820Z,10.10
2018-11-04T03:16:02.421Z,10.10
2018-11-04T03:16:37.361Z,10.10
2018-11-04T03:17:12.260Z,10.20
2018-11-04T03:17:47.121Z,10.10
2018-11-04T03:18:21.861Z,10.10
2018-11-04T03:18:56.721Z,10.10
2018-11-04T03:19:31.882Z,10.10
2018-11-04T03:20:07.169Z,10.10
2018-11-04T03:20:42.123Z,10.10
2018-11-04T03:21:16.739Z,10.10
2018-11-04T03:21:51.702Z,10.10
2018-11-04T03:22:27.060Z,10.10
2018-11-04T03:23:01.922Z,10.10
2018-11-04T03:23:36.661Z,10.10
2018-11-04T03:24:11.901Z,10.20
2018-11-04T03:24:47.012Z,10.20
2018-11-04T03:25:21.620Z,10.20
2018-11-04T03:25:56.305Z,10.20
2018-11-04T03:26:32.279Z,10.20
2018-11-04T03:27:07.301Z,10.20
2018-11-04T03:27:42.320Z,10.10
2018-11-04T03:28:17.168Z,10.20
2018-11-04T03:28:51.940Z,10.20
2018-11-04T03:29:26.988Z,10.20
2018-11-04T03:30:01.786Z,10.10
2018-11-04T03:30:36.688Z,10.20
2018-11-04T03:31:11.440Z,10.20
2018-11-04T03:31:46.045Z,10.20
2018-11-04T03:32:20.883Z,10.20
2018-11-04T03:32:55.820Z,10.20
2018-11-04T03:33:30.421Z,10.20
2018-11-04T03:34:05.840Z,10.20
2018-11-04T03:34:40.781Z,10.20
2018-11-04T03:35:15.520Z,10.20
2018-11-04T03:35:50.061Z,10.20
2018-11-04T03:36:25.181Z,10.20
2018-11-04T03:36:59.987Z,10.20
2018-11-04T03:37:35.061Z,10.20
2018-11-04T03:38:10.388Z,10.20
2018-11-04T03:38:45.540Z,10.20
2018-11-04T03:39:20.658Z,10.20
2018-11-04T03:39:55.248Z,10.20
2018-11-04T03:40:29.960Z,10.20
2018-11-04T03:41:04.840Z,10.20
2018-11-04T03:41:40.400Z,10.20
2018-11-04T03:42:15.081Z,10.20
2018-11-04T03:42:49.840Z,10.20
2018-11-04T03:43:24.440Z,10.20
2018-11-04T03:43:59.542Z,10.20
2018-11-04T03:44:34.520Z,10.20
2018-11-04T03:45:10.079Z,10.20
2018-11-04T03:45:44.802Z,10.20
2018-11-04T03:46:19.560Z,10.20
2018-11-04T03:46:54.459Z,10.20
2018-11-04T03:47:29.267Z,10.20
2018-11-04T03:48:03.840Z,10.20
2018-11-04T03:48:38.840Z,10.20
2018-11-04T03:49:13.561Z,10.20
2018-11-04T03:49:48.362Z,10.20
2018-11-04T03:50:23.200Z,10.20
2018-11-04T03:50:58.180Z,10.20
2018-11-04T03:51:32.941Z,10.20
2018-11-04T03:52:08.220Z,10.20
2018-11-04T03:52:43.281Z,10.20
2018-11-04T03:53:17.947Z,10.20
2018-11-04T03:53:52.925Z,10.20
2018-11-04T03:54:27.740Z,10.20
2018-11-04T03:55:02.520Z,10.20
2018-11-04T03:55:38.220Z,10.20
2018-11-04T03:56:13.123Z,10.20
2018-11-04T03:56:48.040Z,10.30
2018-11-04T03:57:22.928Z,10.30
2018-11-04T03:57:57.901Z,10.30
2018-11-04T03:58:32.820Z,10.30
2018-11-04T03:59:07.841Z,10.30
2018-11-04T03:59:42.561Z,10.30
2018-11-04T04:00:17.140Z,10.30
2018-11-04T04:00:51.942Z,10.30
2018-11-04T04:01:26.685Z,10.30
2018-11-04T04:02:01.504Z,10.30
2018-11-04T04:02:36.322Z,10.30
2018-11-04T04:03:10.920Z,10.30
2018-11-04T04:03:45.862Z,10.20
2018-11-04T04:04:21.040Z,10.30
2018-11-04T04:04:55.861Z,10.30
2018-11-04T04:05:30.661Z,10.30
2018-11-04T04:06:05.281Z,10.30
2018-11-04T04:06:40.259Z,10.30
2018-11-04T04:07:14.960Z,10.30
2018-11-04T04:07:49.921Z,10.30
2018-11-04T04:08:24.520Z,10.30
2018-11-04T04:08:59.700Z,10.30
2018-11-04T04:09:34.620Z,10.30
2018-11-04T04:10:10.401Z,10.30
2018-11-04T04:10:45.360Z,10.30
2018-11-04T04:11:20.549Z,10.30
2018-11-04T04:11:55.423Z,10.30
2018-11-04T04:12:30.485Z,10.30
2018-11-04T04:13:05.260Z,10.30
2018-11-04T04:13:40.160Z,10.30
2018-11-04T04:14:15.202Z,10.30
2018-11-04T04:14:49.908Z,10.30
2018-11-04T04:15:24.680Z,10.30
2018-11-04T04:15:59.280Z,10.30
2018-11-04T04:16:34.081Z,10.30
2018-11-04T04:17:09.280Z,10.30
2018-11-04T04:17:44.500Z,10.30
2018-11-04T04:18:19.640Z,10.30
2018-11-04T04:18:54.662Z,10.30
2018-11-04T04:19:29.528Z,10.30
2018-11-04T04:20:04.661Z,10.30
2018-11-04T04:20:39.721Z,10.30
2018-11-04T04:21:14.519Z,10.30
2018-11-04T04:21:49.745Z,10.30
2018-11-04T04:22:24.701Z,10.30
2018-11-04T04:22:59.482Z,10.30
2018-11-04T04:23:34.499Z,10.30
2018-11-04T04:24:09.021Z,10.30
2018-11-04T04:24:44.124Z,10.30
2018-11-04T04:25:18.863Z,10.30
2018-11-04T04:25:53.880Z,10.30
2018-11-04T04:26:28.700Z,10.30
2018-11-04T04:27:03.669Z,10.30
2018-11-04T04:27:38.631Z,10.30
2018-11-04T04:28:13.301Z,10.30
2018-11-04T04:28:48.241Z,10.30
2018-11-04T04:29:23.547Z,10.30
2018-11-04T04:29:58.319Z,10.30
2018-11-04T04:30:33.179Z,10.30
2018-11-04T04:31:08.050Z,10.30
2018-11-04T04:31:42.980Z,10.30
2018-11-04T04:32:17.882Z,10.30
2018-11-04T04:32:52.701Z,10.30
2018-11-04T04:33:27.941Z,10.30
2018-11-04T04:34:02.879Z,10.30
2018-11-04T04:34:37.560Z,10.30
2018-11-04T04:35:12.527Z,10.30
2018-11-04T04:35:47.821Z,10.30
2018-11-04T04:36:22.343Z,10.30
2018-11-04T04:36:58.122Z,10.30
2018-11-04T04:37:33.060Z,10.30
2018-11-04T04:38:08.381Z,10.30
2018-11-04T04:38:43.470Z,10.30
2018-11-04T04:39:18.380Z,10.30
2018-11-04T04:39:53.440Z,10.30
2018-11-04T04:40:28.379Z,10.30
2018-11-04T04:41:03.460Z,10.30
2018-11-04T04:41:38.420Z,10.30
2018-11-04T04:42:13.439Z,10.30
2018-11-04T04:42:48.604Z,10.30
2018-11-04T04:43:23.787Z,10.30
2018-11-04T04:43:58.827Z,10.30
2018-11-04T04:44:34.142Z,10.30
2018-11-04T04:45:09.060Z,10.30
2018-11-04T04:45:43.775Z,10.30
2018-11-04T04:46:18.660Z,10.30
2018-11-04T04:46:53.700Z,10.30
2018-11-04T04:47:28.501Z,10.30
2018-11-04T04:48:03.402Z,10.30
2018-11-04T04:48:39.963Z,10.30
2018-11-04T04:49:15.005Z,10.30
2018-11-04T04:54:53.742Z,10.30
2018-11-04T04:55:28.759Z,10.30
2018-11-04T04:56:03.980Z,10.30
2018-11-04T04:56:38.671Z,10.30
2018-11-04T04:57:13.860Z,10.30
2018-11-04T04:57:48.640Z,10.30
2018-11-04T04:58:24.239Z,10.30
2018-11-04T04:58:59.501Z,10.20
2018-11-04T04:59:34.204Z,10.20
2018-11-04T05:00:09.659Z,10.20
2018-11-04T05:00:44.461Z,10.20
2018-11-04T05:01:19.339Z,10.20
2018-11-04T05:01:53.982Z,10.20
2018-11-04T05:02:28.820Z,10.20
2018-11-04T05:03:03.722Z,10.20
2018-11-04T05:03:38.547Z,10.20
2018-11-04T05:04:13.468Z,10.20
2018-11-04T05:04:48.141Z,10.20
2018-11-04T05:05:23.220Z,10.20
2018-11-04T05:05:58.160Z,10.20
2018-11-04T05:06:32.880Z,10.20
2018-11-04T05:07:07.639Z,10.20
2018-11-04T05:07:42.672Z,10.20
2018-11-04T05:08:17.802Z,10.20
2018-11-04T05:08:52.479Z,10.20
2018-11-04T05:09:27.647Z,10.20
2018-11-04T05:10:02.479Z,10.20
2018-11-04T05:10:37.439Z,10.20
2018-11-04T05:11:12.760Z,10.30
2018-11-04T05:11:47.683Z,10.20
2018-11-04T05:12:22.861Z,10.20
2018-11-04T05:12:57.899Z,10.20
2018-11-04T05:13:33.060Z,10.30
2018-11-04T05:14:08.379Z,10.30
2018-11-04T05:14:43.259Z,10.30
2018-11-04T05:15:18.062Z,10.30
2018-11-04T05:15:53.280Z,10.30
2018-11-04T05:16:27.819Z,10.30
2018-11-04T05:17:02.636Z,10.20
2018-11-04T05:17:37.521Z,10.30
2018-11-04T05:18:12.601Z,10.20
2018-11-04T05:18:47.660Z,10.30
2018-11-04T05:19:22.667Z,10.30
2018-11-04T05:19:57.682Z,10.20
2018-11-04T05:20:32.722Z,10.30
2018-11-04T05:21:08.161Z,10.30
2018-11-04T05:21:43.861Z,10.30
2018-11-04T05:22:18.939Z,10.30
2018-11-04T05:22:54.047Z,10.30
2018-11-04T05:23:29.247Z,10.20
2018-11-04T05:24:04.580Z,10.30
2018-11-04T05:24:39.487Z,10.30
2018-11-04T05:25:14.860Z,10.30
2018-11-04T05:25:50.065Z,10.20
2018-11-04T05:26:25.128Z,10.30
2018-11-04T05:27:00.248Z,10.20
2018-11-04T05:27:35.420Z,10.30
2018-11-04T05:28:10.602Z,10.30
2018-11-04T05:28:45.343Z,10.20
2018-11-04T05:29:20.421Z,10.20
2018-11-04T05:29:55.461Z,10.20
2018-11-04T05:30:30.340Z,10.20
2018-11-04T05:31:05.580Z,10.20
2018-11-04T05:31:40.660Z,10.20
2018-11-04T05:32:15.759Z,10.20
2018-11-04T05:32:50.821Z,10.20
2018-11-04T05:33:25.639Z,10.20
2018-11-04T05:34:00.668Z,10.20
2018-11-04T05:34:35.802Z,10.20
2018-11-04T05:35:10.981Z,10.20
2018-11-04T05:35:46.140Z,10.20
2018-11-04T05:36:21.167Z,10.20
2018-11-04T05:36:56.282Z,10.20
2018-11-04T05:37:31.224Z,10.20
2018-11-04T05:38:06.277Z,10.20
2018-11-04T05:38:41.211Z,10.20
2018-11-04T05:39:16.460Z,10.20
2018-11-04T05:39:52.041Z,10.20
2018-11-04T05:40:27.061Z,10.20
2018-11-04T05:41:02.024Z,10.20
2018-11-04T05:41:37.339Z,10.20
2018-11-04T05:42:12.301Z,10.20
2018-11-04T05:42:46.979Z,10.20
2018-11-04T05:43:21.819Z,10.20
2018-11-04T05:43:56.781Z,10.20
2018-11-04T05:44:31.661Z,10.20
2018-11-04T05:45:07.368Z,10.20
2018-11-04T05:45:42.041Z,10.20
2018-11-04T05:46:17.021Z,10.20
2018-11-04T05:46:52.267Z,10.20
2018-11-04T05:47:26.919Z,10.20
2018-11-04T05:48:01.961Z,10.20
2018-11-04T05:48:36.960Z,10.20
2018-11-04T05:49:11.820Z,10.20
2018-11-04T05:49:46.431Z,10.20
2018-11-04T05:50:21.441Z,10.20
2018-11-04T05:50:56.261Z,10.20
2018-11-04T05:51:30.871Z,10.20
2018-11-04T05:52:06.001Z,10.20
2018-11-04T05:52:41.143Z,10.20
2018-11-04T05:53:16.142Z,10.20
2018-11-04T05:53:51.060Z,10.20
2018-11-04T05:54:25.981Z,10.20
2018-11-04T05:55:00.901Z,10.20
2018-11-04T05:55:36.001Z,10.20
2018-11-04T05:56:11.467Z,10.20
2018-11-04T05:56:46.540Z,10.20
2018-11-04T05:57:21.481Z,10.20
2018-11-04T05:57:56.388Z,10.20
2018-11-04T05:58:31.040Z,10.20
2018-11-04T05:59:06.184Z,10.20
2018-11-04T05:59:40.961Z,10.20
2018-11-04T06:00:16.242Z,10.20
2018-11-04T06:00:51.040Z,10.20
2018-11-04T06:01:25.900Z,10.20
2018-11-04T06:02:00.710Z,10.20
2018-11-04T06:02:36.581Z,10.20
2018-11-04T06:03:11.602Z,10.20
2018-11-04T06:03:46.680Z,10.20
2018-11-04T06:04:21.500Z,10.20
2018-11-04T06:04:56.682Z,10.20
2018-11-04T06:05:31.961Z,10.20
2018-11-04T06:06:07.002Z,10.20
2018-11-04T06:06:42.289Z,10.20
2018-11-04T06:07:17.280Z,10.30
2018-11-04T06:07:52.221Z,10.20
2018-11-04T06:08:27.240Z,10.30
2018-11-04T06:09:02.420Z,10.20
2018-11-04T06:09:37.441Z,10.30
2018-11-04T06:10:12.260Z,10.30
2018-11-04T06:10:47.120Z,10.30
2018-11-04T06:11:21.880Z,10.30
2018-11-04T06:11:56.842Z,10.30
2018-11-04T06:12:32.063Z,10.30
2018-11-04T06:13:07.020Z,10.30
2018-11-04T06:13:42.100Z,10.30
2018-11-04T06:14:17.081Z,10.30
2018-11-04T06:14:51.760Z,10.30
2018-11-04T06:15:26.462Z,10.30
2018-11-04T06:16:01.325Z,10.30
2018-11-04T06:16:36.148Z,10.30
2018-11-04T06:17:10.963Z,10.30
2018-11-04T06:17:45.660Z,10.30
2018-11-04T06:18:20.582Z,10.30
2018-11-04T06:18:55.562Z,10.30
2018-11-04T06:19:30.409Z,10.30
2018-11-04T06:20:05.361Z,10.30
2018-11-04T06:20:40.200Z,10.30
2018-11-04T06:21:15.132Z,10.30
2018-11-04T06:21:49.901Z,10.30
2018-11-04T06:22:24.800Z,10.30
2018-11-04T06:22:59.921Z,10.30
2018-11-04T06:23:34.808Z,10.30
2018-11-04T06:24:09.701Z,10.30
2018-11-04T06:24:44.500Z,10.30
2018-11-04T06:25:19.340Z,10.30
2018-11-04T06:25:54.180Z,10.30
2018-11-04T06:26:29.060Z,10.30
2018-11-04T06:27:03.959Z,10.30
2018-11-04T06:27:38.760Z,10.30
2018-11-04T06:28:13.561Z,10.30
2018-11-04T06:28:48.581Z,10.30
2018-11-04T06:29:23.449Z,10.30
2018-11-04T06:29:58.382Z,10.30
2018-11-04T06:30:33.160Z,10.30
2018-11-04T06:31:08.220Z,10.30
2018-11-04T06:31:43.140Z,10.30
2018-11-04T06:32:18.039Z,10.30
2018-11-04T06:32:53.001Z,10.30
2018-11-04T06:33:27.659Z,10.30
2018-11-04T06:34:02.720Z,10.30
2018-11-04T06:34:37.699Z,10.30
2018-11-04T06:35:12.421Z,10.30
2018-11-04T06:35:47.262Z,10.30
2018-11-04T06:36:22.560Z,10.30
2018-11-04T06:36:57.360Z,10.30
2018-11-04T06:37:32.119Z,10.40
2018-11-04T06:38:07.068Z,10.30
2018-11-04T06:38:42.080Z,10.30
2018-11-04T06:39:16.879Z,10.30
2018-11-04T06:39:52.080Z,10.30
2018-11-04T06:40:27.000Z,10.30
2018-11-04T06:41:02.153Z,10.30
2018-11-04T06:41:37.081Z,10.30
2018-11-04T06:42:11.964Z,10.30
2018-11-04T06:42:46.900Z,10.30
2018-11-04T06:43:21.841Z,10.30
2018-11-04T06:43:57.080Z,10.30
2018-11-04T06:44:32.260Z,10.30
2018-11-04T06:45:08.361Z,10.40
2018-11-04T06:45:43.340Z,10.30
2018-11-04T06:46:18.090Z,10.40
2018-11-04T06:46:52.934Z,10.30
2018-11-04T06:47:27.699Z,10.40
2018-11-04T06:48:02.400Z,10.30
2018-11-04T06:48:37.342Z,10.30
2018-11-04T06:49:18.682Z,10.30
2018-11-04T06:49:53.340Z,10.40
2018-11-04T06:50:28.259Z,10.30
2018-11-04T06:51:02.903Z,10.30
2018-11-04T06:51:37.980Z,10.30
2018-11-04T06:52:12.740Z,10.30
2018-11-04T06:52:47.868Z,10.30
2018-11-04T06:53:22.563Z,10.30
2018-11-04T06:53:57.600Z,10.30
2018-11-04T06:54:32.100Z,10.30
2018-11-04T06:55:07.111Z,10.30
2018-11-04T06:55:41.962Z,10.30
2018-11-04T06:56:16.942Z,10.30
2018-11-04T06:56:51.861Z,10.30
2018-11-04T06:57:26.699Z,10.30
2018-11-04T06:58:01.322Z,10.30
2018-11-04T06:58:36.061Z,10.30
2018-11-04T06:59:10.900Z,10.30
2018-11-04T06:59:45.450Z,10.30
2018-11-04T07:00:20.401Z,10.30
2018-11-04T07:00:55.308Z,10.30
2018-11-04T07:01:29.839Z,10.30
2018-11-04T07:02:04.680Z,10.30
2018-11-04T07:02:39.472Z,10.30
2018-11-04T07:03:14.263Z,10.30
2018-11-04T07:03:59.923Z,10.40
2018-11-04T07:04:34.760Z,10.30
2018-11-04T07:05:09.841Z,10.30
2018-11-04T07:05:44.902Z,10.30
2018-11-04T07:06:19.684Z,10.30
2018-11-04T07:06:54.543Z,10.30
2018-11-04T07:07:29.408Z,10.30
2018-11-04T07:08:04.550Z,10.30
2018-11-04T07:08:39.501Z,10.30
2018-11-04T07:09:15.180Z,10.30
2018-11-04T07:09:49.913Z,10.30
2018-11-04T07:10:24.600Z,10.30
2018-11-04T07:10:59.241Z,10.30
2018-11-04T07:11:34.021Z,10.30
2018-11-04T07:12:08.660Z,10.30
2018-11-04T07:12:43.380Z,10.30
2018-11-04T07:13:18.300Z,10.40
2018-11-04T07:13:53.221Z,10.30
2018-11-04T07:14:27.821Z,10.40
2018-11-04T07:15:02.520Z,10.40
2018-11-04T07:15:37.221Z,10.40
2018-11-04T07:16:12.000Z,10.40
2018-11-04T07:16:46.825Z,10.40
2018-11-04T07:17:21.520Z,10.40
2018-11-04T07:17:56.420Z,10.40
2018-11-04T07:18:31.382Z,10.40
2018-11-04T07:19:06.361Z,10.50
2018-11-04T07:19:41.169Z,10.50
2018-11-04T07:20:15.740Z,10.50
2018-11-04T07:20:50.522Z,10.50
2018-11-04T07:21:25.388Z,10.40
2018-11-04T07:22:00.440Z,10.50
2018-11-04T07:22:35.326Z,10.50
2018-11-04T07:23:09.901Z,10.50
2018-11-04T07:23:44.561Z,10.50
2018-11-04T07:24:19.282Z,10.50
2018-11-04T07:24:54.301Z,10.50
2018-11-04T07:25:29.457Z,10.50
2018-11-04T07:26:04.520Z,10.60
2018-11-04T07:26:39.428Z,10.60
2018-11-04T07:27:14.480Z,10.60
2018-11-04T07:27:49.410Z,10.70
2018-11-04T07:28:24.080Z,10.70
2018-11-04T07:28:58.759Z,10.70
2018-11-04T07:29:33.680Z,10.70
2018-11-04T07:30:11.128Z,10.80
2018-11-04T07:30:45.762Z,10.80
2018-11-04T07:31:20.562Z,10.80
2018-11-04T07:31:55.820Z,10.90
2018-11-04T07:32:30.900Z,10.90
2018-11-04T07:33:05.848Z,11.00
2018-11-04T07:33:40.579Z,11.00
2018-11-04T07:34:15.361Z,11.00
2018-11-04T07:34:50.060Z,11.00
2018-11-04T07:35:24.922Z,11.00
2018-11-04T07:35:59.701Z,11.00
2018-11-04T07:36:34.579Z,11.00
2018-11-04T07:37:09.342Z,11.00
2018-11-04T07:37:44.182Z,11.10
2018-11-04T07:38:19.040Z,11.00
2018-11-04T07:38:53.722Z,11.10
2018-11-04T07:39:28.301Z,11.00
2018-11-04T07:40:03.021Z,11.10
2018-11-04T07:40:37.761Z,11.10
2018-11-04T07:41:12.520Z,11.10